sensor_id;sensor_type;location;lat;lon;timestamp;P1;durP1;ratioP1;P2;durP2;ratioP2
10174;SDS011;18221;38.704;0.152;2024-02-15T00:00:31;2.57;;;1.60;;
10174;SDS011;18221;38.704;0.152;2024-02-15T00:02:59;3.27;;;1.63;;
10174;SDS011;18221;38.704;0.152;2024-02-15T00:05:27;5.77;;;2.20;;
10174;SDS011;18221;38.704;0.152;2024-02-15T00:07:59;3.03;;;1.60;;
10174;SDS011;18221;38.704;0.152;2024-02-15T00:10:27;3.97;;;1.67;;
10174;SDS011;18221;38.704;0.152;2024-02-15T00:12:55;3.63;;;1.70;;
10174;SDS011;18221;38.704;0.152;2024-02-15T00:15:27;2.90;;;1.70;;
10174;SDS011;18221;38.704;0.152;2024-02-15T00:17:55;3.17;;;1.73;;
10174;SDS011;18221;38.704;0.152;2024-02-15T00:20:23;5.33;;;1.77;;
10174;SDS011;18221;38.704;0.152;2024-02-15T00:22:50;2.97;;;1.60;;
10174;SDS011;18221;38.704;0.152;2024-02-15T00:25:20;3.03;;;1.87;;
10174;SDS011;18221;38.704;0.152;2024-02-15T00:27:48;4.70;;;1.80;;
10174;SDS011;18221;38.704;0.152;2024-02-15T00:30:16;2.57;;;1.70;;
10174;SDS011;18221;38.704;0.152;2024-02-15T00:32:44;4.57;;;1.83;;
10174;SDS011;18221;38.704;0.152;2024-02-15T00:35:12;4.03;;;1.90;;
10174;SDS011;18221;38.704;0.152;2024-02-15T00:37:40;2.20;;;1.40;;
10174;SDS011;18221;38.704;0.152;2024-02-15T00:40:08;9.07;;;2.20;;
10174;SDS011;18221;38.704;0.152;2024-02-15T00:42:38;3.33;;;1.77;;
10174;SDS011;18221;38.704;0.152;2024-02-15T00:45:06;4.73;;;1.90;;
10174;SDS011;18221;38.704;0.152;2024-02-15T00:47:35;5.77;;;2.13;;
10174;SDS011;18221;38.704;0.152;2024-02-15T01:03:06;3.47;;;2.00;;
10174;SDS011;18221;38.704;0.152;2024-02-15T01:05:33;2.87;;;1.70;;
10174;SDS011;18221;38.704;0.152;2024-02-15T01:08:01;3.50;;;1.60;;
10174;SDS011;18221;38.704;0.152;2024-02-15T01:10:30;3.07;;;1.60;;
10174;SDS011;18221;38.704;0.152;2024-02-15T01:12:59;2.60;;;1.57;;
10174;SDS011;18221;38.704;0.152;2024-02-15T01:15:27;3.03;;;1.50;;
10174;SDS011;18221;38.704;0.152;2024-02-15T01:17:55;3.83;;;1.90;;
10174;SDS011;18221;38.704;0.152;2024-02-15T01:20:25;4.80;;;1.80;;
10174;SDS011;18221;38.704;0.152;2024-02-15T01:22:53;3.43;;;1.60;;
10174;SDS011;18221;38.704;0.152;2024-02-15T01:25:21;4.37;;;1.90;;
10174;SDS011;18221;38.704;0.152;2024-02-15T01:27:48;4.53;;;1.50;;
10174;SDS011;18221;38.704;0.152;2024-02-15T01:30:16;3.00;;;1.40;;
10174;SDS011;18221;38.704;0.152;2024-02-15T01:32:45;2.53;;;1.40;;
10174;SDS011;18221;38.704;0.152;2024-02-15T01:35:13;2.07;;;1.40;;
10174;SDS011;18221;38.704;0.152;2024-02-15T01:37:42;3.20;;;1.57;;
10174;SDS011;18221;38.704;0.152;2024-02-15T01:40:10;3.57;;;1.60;;
10174;SDS011;18221;38.704;0.152;2024-02-15T01:42:40;2.43;;;1.50;;
10174;SDS011;18221;38.704;0.152;2024-02-15T01:45:08;4.93;;;1.60;;
10174;SDS011;18221;38.704;0.152;2024-02-15T01:47:37;1.93;;;1.30;;
10174;SDS011;18221;38.704;0.152;2024-02-15T01:50:06;3.33;;;1.43;;
10174;SDS011;18221;38.704;0.152;2024-02-15T01:52:35;3.20;;;1.53;;
10174;SDS011;18221;38.704;0.152;2024-02-15T01:55:07;3.17;;;1.70;;
10174;SDS011;18221;38.704;0.152;2024-02-15T01:57:35;1.83;;;1.27;;
10174;SDS011;18221;38.704;0.152;2024-02-15T02:00:04;2.30;;;1.53;;
10174;SDS011;18221;38.704;0.152;2024-02-15T02:02:34;2.43;;;1.30;;
10174;SDS011;18221;38.704;0.152;2024-02-15T02:05:06;1.93;;;1.40;;
10174;SDS011;18221;38.704;0.152;2024-02-15T02:07:34;2.50;;;1.87;;
10174;SDS011;18221;38.704;0.152;2024-02-15T02:10:02;3.37;;;1.57;;
10174;SDS011;18221;38.704;0.152;2024-02-15T02:12:33;2.83;;;1.70;;
10174;SDS011;18221;38.704;0.152;2024-02-15T02:15:01;4.67;;;1.90;;
10174;SDS011;18221;38.704;0.152;2024-02-15T02:17:30;4.00;;;1.73;;
10174;SDS011;18221;38.704;0.152;2024-02-15T02:19:59;2.77;;;1.30;;
10174;SDS011;18221;38.704;0.152;2024-02-15T02:22:27;2.60;;;1.70;;
10174;SDS011;18221;38.704;0.152;2024-02-15T02:25:01;2.90;;;1.63;;
10174;SDS011;18221;38.704;0.152;2024-02-15T02:27:33;3.20;;;1.50;;
10174;SDS011;18221;38.704;0.152;2024-02-15T02:30:03;4.13;;;1.63;;
10174;SDS011;18221;38.704;0.152;2024-02-15T02:32:35;2.67;;;1.60;;
10174;SDS011;18221;38.704;0.152;2024-02-15T02:35:04;2.90;;;1.80;;
10174;SDS011;18221;38.704;0.152;2024-02-15T02:37:32;2.97;;;1.83;;
10174;SDS011;18221;38.704;0.152;2024-02-15T02:40:05;4.33;;;2.00;;
10174;SDS011;18221;38.704;0.152;2024-02-15T02:42:35;2.77;;;1.70;;
10174;SDS011;18221;38.704;0.152;2024-02-15T02:45:12;3.43;;;1.60;;
10174;SDS011;18221;38.704;0.152;2024-02-15T02:47:40;4.47;;;1.90;;
10174;SDS011;18221;38.704;0.152;2024-02-15T02:50:09;6.67;;;2.13;;
10174;SDS011;18221;38.704;0.152;2024-02-15T02:52:37;4.40;;;1.90;;
10174;SDS011;18221;38.704;0.152;2024-02-15T02:55:07;2.20;;;1.50;;
10174;SDS011;18221;38.704;0.152;2024-02-15T02:57:36;2.70;;;1.70;;
10174;SDS011;18221;38.704;0.152;2024-02-15T03:00:05;3.03;;;1.90;;
10174;SDS011;18221;38.704;0.152;2024-02-15T03:02:40;2.60;;;1.60;;
10174;SDS011;18221;38.704;0.152;2024-02-15T03:05:09;2.90;;;1.83;;
10174;SDS011;18221;38.704;0.152;2024-02-15T03:07:38;2.87;;;1.80;;
10174;SDS011;18221;38.704;0.152;2024-02-15T03:10:09;4.33;;;1.70;;
10174;SDS011;18221;38.704;0.152;2024-02-15T03:12:39;1.50;;;1.40;;
10174;SDS011;18221;38.704;0.152;2024-02-15T03:15:12;3.30;;;1.47;;
10174;SDS011;18221;38.704;0.152;2024-02-15T03:17:41;3.47;;;1.80;;
10174;SDS011;18221;38.704;0.152;2024-02-15T03:20:11;2.13;;;1.60;;
10174;SDS011;18221;38.704;0.152;2024-02-15T03:22:47;2.97;;;1.70;;
10174;SDS011;18221;38.704;0.152;2024-02-15T03:25:21;2.97;;;1.60;;
10174;SDS011;18221;38.704;0.152;2024-02-15T03:27:50;2.53;;;1.70;;
10174;SDS011;18221;38.704;0.152;2024-02-15T03:30:20;3.47;;;1.63;;
10174;SDS011;18221;38.704;0.152;2024-02-15T03:32:50;3.57;;;1.60;;
10174;SDS011;18221;38.704;0.152;2024-02-15T03:35:18;4.60;;;2.00;;
10174;SDS011;18221;38.704;0.152;2024-02-15T03:37:48;2.43;;;1.67;;
10174;SDS011;18221;38.704;0.152;2024-02-15T03:40:17;2.00;;;1.47;;
10174;SDS011;18221;38.704;0.152;2024-02-15T03:42:48;2.30;;;1.53;;
10174;SDS011;18221;38.704;0.152;2024-02-15T03:45:16;2.77;;;1.67;;
10174;SDS011;18221;38.704;0.152;2024-02-15T03:47:44;4.43;;;1.67;;
10174;SDS011;18221;38.704;0.152;2024-02-15T03:50:15;4.77;;;1.80;;
10174;SDS011;18221;38.704;0.152;2024-02-15T03:52:46;2.17;;;1.50;;
10174;SDS011;18221;38.704;0.152;2024-02-15T03:55:15;3.47;;;1.40;;
10174;SDS011;18221;38.704;0.152;2024-02-15T03:57:45;3.17;;;1.60;;
10174;SDS011;18221;38.704;0.152;2024-02-15T04:00:13;2.30;;;1.43;;
10174;SDS011;18221;38.704;0.152;2024-02-15T04:02:45;5.70;;;1.57;;
10174;SDS011;18221;38.704;0.152;2024-02-15T04:05:14;3.03;;;1.63;;
10174;SDS011;18221;38.704;0.152;2024-02-15T04:07:43;2.00;;;1.50;;
10174;SDS011;18221;38.704;0.152;2024-02-15T04:10:11;2.13;;;1.47;;
10174;SDS011;18221;38.704;0.152;2024-02-15T04:12:39;4.10;;;1.63;;
10174;SDS011;18221;38.704;0.152;2024-02-15T04:15:09;2.27;;;1.47;;
10174;SDS011;18221;38.704;0.152;2024-02-15T04:17:39;3.37;;;1.70;;
10174;SDS011;18221;38.704;0.152;2024-02-15T04:20:09;3.40;;;1.50;;
10174;SDS011;18221;38.704;0.152;2024-02-15T04:22:39;3.23;;;1.50;;
10174;SDS011;18221;38.704;0.152;2024-02-15T04:25:08;3.30;;;1.73;;
10174;SDS011;18221;38.704;0.152;2024-02-15T04:27:41;3.03;;;1.57;;
10174;SDS011;18221;38.704;0.152;2024-02-15T04:30:12;2.07;;;1.30;;
10174;SDS011;18221;38.704;0.152;2024-02-15T04:32:41;3.10;;;1.63;;
10174;SDS011;18221;38.704;0.152;2024-02-15T04:35:08;1.37;;;1.20;;
10174;SDS011;18221;38.704;0.152;2024-02-15T04:37:37;3.07;;;1.40;;
10174;SDS011;18221;38.704;0.152;2024-02-15T04:40:06;2.33;;;1.57;;
10174;SDS011;18221;38.704;0.152;2024-02-15T04:42:35;2.83;;;1.60;;
10174;SDS011;18221;38.704;0.152;2024-02-15T04:45:05;1.40;;;1.30;;
10174;SDS011;18221;38.704;0.152;2024-02-15T04:47:36;3.00;;;1.50;;
10174;SDS011;18221;38.704;0.152;2024-02-15T04:50:06;3.97;;;1.50;;
10174;SDS011;18221;38.704;0.152;2024-02-15T04:52:34;2.47;;;1.40;;
10174;SDS011;18221;38.704;0.152;2024-02-15T04:55:04;2.70;;;1.37;;
10174;SDS011;18221;38.704;0.152;2024-02-15T04:57:32;2.33;;;1.40;;
10174;SDS011;18221;38.704;0.152;2024-02-15T05:00:02;2.50;;;1.30;;
10174;SDS011;18221;38.704;0.152;2024-02-15T05:02:37;1.80;;;1.40;;
10174;SDS011;18221;38.704;0.152;2024-02-15T05:05:06;2.87;;;1.67;;
10174;SDS011;18221;38.704;0.152;2024-02-15T05:07:35;2.03;;;1.50;;
10174;SDS011;18221;38.704;0.152;2024-02-15T05:10:05;4.70;;;1.40;;
10174;SDS011;18221;38.704;0.152;2024-02-15T05:12:35;3.37;;;1.60;;
10174;SDS011;18221;38.704;0.152;2024-02-15T05:15:05;2.73;;;1.40;;
10174;SDS011;18221;38.704;0.152;2024-02-15T05:17:36;3.33;;;1.60;;
10174;SDS011;18221;38.704;0.152;2024-02-15T05:20:07;4.23;;;1.73;;
10174;SDS011;18221;38.704;0.152;2024-02-15T05:22:38;2.77;;;1.57;;
10174;SDS011;18221;38.704;0.152;2024-02-15T05:25:09;3.50;;;1.80;;
10174;SDS011;18221;38.704;0.152;2024-02-15T05:27:37;2.70;;;1.50;;
10174;SDS011;18221;38.704;0.152;2024-02-15T05:30:10;2.10;;;1.37;;
10174;SDS011;18221;38.704;0.152;2024-02-15T05:32:41;2.07;;;1.50;;
10174;SDS011;18221;38.704;0.152;2024-02-15T05:35:10;2.90;;;1.50;;
10174;SDS011;18221;38.704;0.152;2024-02-15T05:37:40;3.77;;;1.57;;
10174;SDS011;18221;38.704;0.152;2024-02-15T05:40:08;3.43;;;1.80;;
10174;SDS011;18221;38.704;0.152;2024-02-15T05:42:40;2.50;;;1.40;;
10174;SDS011;18221;38.704;0.152;2024-02-15T05:45:29;3.27;;;1.50;;
10174;SDS011;18221;38.704;0.152;2024-02-15T05:48:01;1.57;;;1.30;;
10174;SDS011;18221;38.704;0.152;2024-02-15T05:50:34;2.23;;;1.50;;
10174;SDS011;18221;38.704;0.152;2024-02-15T05:53:02;1.60;;;1.30;;
10174;SDS011;18221;38.704;0.152;2024-02-15T05:55:33;3.10;;;1.30;;
10174;SDS011;18221;38.704;0.152;2024-02-15T05:58:03;1.83;;;1.40;;
10174;SDS011;18221;38.704;0.152;2024-02-15T06:00:31;1.63;;;1.50;;
10174;SDS011;18221;38.704;0.152;2024-02-15T06:03:01;3.33;;;1.43;;
10174;SDS011;18221;38.704;0.152;2024-02-15T06:05:29;1.80;;;1.30;;
10174;SDS011;18221;38.704;0.152;2024-02-15T06:07:57;2.27;;;1.23;;
10174;SDS011;18221;38.704;0.152;2024-02-15T06:10:25;3.23;;;1.40;;
10174;SDS011;18221;38.704;0.152;2024-02-15T06:12:54;3.03;;;1.43;;
10174;SDS011;18221;38.704;0.152;2024-02-15T06:15:24;2.83;;;1.73;;
10174;SDS011;18221;38.704;0.152;2024-02-15T06:17:52;1.73;;;1.27;;
10174;SDS011;18221;38.704;0.152;2024-02-15T06:20:21;1.83;;;1.20;;
10174;SDS011;18221;38.704;0.152;2024-02-15T06:22:50;3.47;;;1.50;;
10174;SDS011;18221;38.704;0.152;2024-02-15T06:25:18;1.80;;;1.33;;
10174;SDS011;18221;38.704;0.152;2024-02-15T06:27:46;1.90;;;1.30;;
10174;SDS011;18221;38.704;0.152;2024-02-15T06:30:16;2.27;;;1.53;;
10174;SDS011;18221;38.704;0.152;2024-02-15T06:33:01;2.80;;;1.50;;
10174;SDS011;18221;38.704;0.152;2024-02-15T06:35:49;2.63;;;2.00;;
10174;SDS011;18221;38.704;0.152;2024-02-15T06:38:34;3.20;;;2.10;;
10174;SDS011;18221;38.704;0.152;2024-02-15T06:41:19;4.07;;;1.90;;
10174;SDS011;18221;38.704;0.152;2024-02-15T06:43:47;3.30;;;1.80;;
10174;SDS011;18221;38.704;0.152;2024-02-15T06:46:15;5.63;;;2.40;;
10174;SDS011;18221;38.704;0.152;2024-02-15T06:48:44;4.67;;;1.90;;
10174;SDS011;18221;38.704;0.152;2024-02-15T06:51:14;3.50;;;1.77;;
10174;SDS011;18221;38.704;0.152;2024-02-15T06:53:42;2.73;;;1.83;;
10174;SDS011;18221;38.704;0.152;2024-02-15T06:56:11;4.50;;;2.00;;
10174;SDS011;18221;38.704;0.152;2024-02-15T06:58:39;4.47;;;2.33;;
10174;SDS011;18221;38.704;0.152;2024-02-15T07:01:07;5.30;;;2.70;;
10174;SDS011;18221;38.704;0.152;2024-02-15T07:03:38;5.77;;;2.73;;
10174;SDS011;18221;38.704;0.152;2024-02-15T07:06:06;6.23;;;3.33;;
10174;SDS011;18221;38.704;0.152;2024-02-15T07:08:35;7.57;;;3.93;;
10174;SDS011;18221;38.704;0.152;2024-02-15T07:11:04;6.43;;;3.00;;
10174;SDS011;18221;38.704;0.152;2024-02-15T07:13:34;4.07;;;2.20;;
10174;SDS011;18221;38.704;0.152;2024-02-15T07:16:06;4.60;;;1.90;;
10174;SDS011;18221;38.704;0.152;2024-02-15T07:18:34;3.17;;;2.27;;
10174;SDS011;18221;38.704;0.152;2024-02-15T07:21:04;4.53;;;2.50;;
10174;SDS011;18221;38.704;0.152;2024-02-15T07:23:38;8.27;;;2.83;;
10174;SDS011;18221;38.704;0.152;2024-02-15T07:26:06;6.07;;;3.30;;
10174;SDS011;18221;38.704;0.152;2024-02-15T07:28:37;4.93;;;3.47;;
10174;SDS011;18221;38.704;0.152;2024-02-15T07:31:06;8.03;;;3.47;;
10174;SDS011;18221;38.704;0.152;2024-02-15T07:33:34;10.20;;;3.10;;
10174;SDS011;18221;38.704;0.152;2024-02-15T07:36:04;4.87;;;2.40;;
10174;SDS011;18221;38.704;0.152;2024-02-15T07:38:32;5.10;;;2.60;;
10174;SDS011;18221;38.704;0.152;2024-02-15T07:41:02;3.20;;;2.07;;
10174;SDS011;18221;38.704;0.152;2024-02-15T07:43:30;6.93;;;2.50;;
10174;SDS011;18221;38.704;0.152;2024-02-15T07:46:00;3.93;;;2.40;;
10174;SDS011;18221;38.704;0.152;2024-02-15T07:48:28;2.73;;;1.83;;
10174;SDS011;18221;38.704;0.152;2024-02-15T07:50:57;7.07;;;2.00;;
10174;SDS011;18221;38.704;0.152;2024-02-15T07:53:25;5.40;;;2.03;;
10174;SDS011;18221;38.704;0.152;2024-02-15T07:55:52;5.27;;;1.87;;
10174;SDS011;18221;38.704;0.152;2024-02-15T07:58:22;5.30;;;2.20;;
10174;SDS011;18221;38.704;0.152;2024-02-15T08:00:50;6.63;;;2.77;;
10174;SDS011;18221;38.704;0.152;2024-02-15T08:03:18;7.77;;;3.50;;
10174;SDS011;18221;38.704;0.152;2024-02-15T08:05:47;5.03;;;3.00;;
10174;SDS011;18221;38.704;0.152;2024-02-15T08:08:15;9.40;;;3.63;;
10174;SDS011;18221;38.704;0.152;2024-02-15T08:10:43;6.13;;;2.77;;
10174;SDS011;18221;38.704;0.152;2024-02-15T08:13:13;7.87;;;2.73;;
10174;SDS011;18221;38.704;0.152;2024-02-15T08:15:44;2.80;;;1.50;;
10174;SDS011;18221;38.704;0.152;2024-02-15T08:18:13;3.57;;;1.80;;
10174;SDS011;18221;38.704;0.152;2024-02-15T08:20:41;5.10;;;1.90;;
10174;SDS011;18221;38.704;0.152;2024-02-15T08:23:09;4.30;;;2.03;;
10174;SDS011;18221;38.704;0.152;2024-02-15T08:25:38;5.53;;;1.70;;
10174;SDS011;18221;38.704;0.152;2024-02-15T08:28:06;4.30;;;1.97;;
10174;SDS011;18221;38.704;0.152;2024-02-15T08:30:36;4.30;;;1.70;;
10174;SDS011;18221;38.704;0.152;2024-02-15T08:33:06;4.00;;;1.60;;
10174;SDS011;18221;38.704;0.152;2024-02-15T08:35:36;3.43;;;1.50;;
10174;SDS011;18221;38.704;0.152;2024-02-15T08:38:05;3.80;;;1.60;;
10174;SDS011;18221;38.704;0.152;2024-02-15T08:40:33;4.13;;;1.53;;
10174;SDS011;18221;38.704;0.152;2024-02-15T08:43:01;3.47;;;1.73;;
10174;SDS011;18221;38.704;0.152;2024-02-15T08:45:29;5.27;;;2.50;;
10174;SDS011;18221;38.704;0.152;2024-02-15T08:47:57;7.20;;;3.73;;
10174;SDS011;18221;38.704;0.152;2024-02-15T08:50:27;6.80;;;4.00;;
10174;SDS011;18221;38.704;0.152;2024-02-15T08:52:54;7.63;;;5.10;;
10174;SDS011;18221;38.704;0.152;2024-02-15T08:55:22;7.17;;;4.57;;
10174;SDS011;18221;38.704;0.152;2024-02-15T08:57:52;7.53;;;4.07;;
10174;SDS011;18221;38.704;0.152;2024-02-15T09:00:20;8.07;;;4.50;;
10174;SDS011;18221;38.704;0.152;2024-02-15T09:02:52;9.70;;;4.77;;
10174;SDS011;18221;38.704;0.152;2024-02-15T09:05:19;8.97;;;4.30;;
10174;SDS011;18221;38.704;0.152;2024-02-15T09:07:49;3.17;;;2.40;;
10174;SDS011;18221;38.704;0.152;2024-02-15T09:10:17;4.97;;;2.70;;
10174;SDS011;18221;38.704;0.152;2024-02-15T09:12:47;6.73;;;3.43;;
10174;SDS011;18221;38.704;0.152;2024-02-15T09:15:16;4.47;;;2.90;;
10174;SDS011;18221;38.704;0.152;2024-02-15T09:17:44;9.47;;;3.30;;
10174;SDS011;18221;38.704;0.152;2024-02-15T09:20:13;5.70;;;3.07;;
10174;SDS011;18221;38.704;0.152;2024-02-15T09:22:49;5.17;;;2.80;;
10174;SDS011;18221;38.704;0.152;2024-02-15T09:25:20;5.73;;;2.77;;
10174;SDS011;18221;38.704;0.152;2024-02-15T09:27:49;5.20;;;2.57;;
10174;SDS011;18221;38.704;0.152;2024-02-15T09:30:19;4.23;;;1.93;;
10174;SDS011;18221;38.704;0.152;2024-02-15T09:32:50;4.50;;;1.90;;
10174;SDS011;18221;38.704;0.152;2024-02-15T09:35:18;3.47;;;2.13;;
10174;SDS011;18221;38.704;0.152;2024-02-15T09:37:46;3.90;;;1.90;;
10174;SDS011;18221;38.704;0.152;2024-02-15T09:40:17;4.93;;;1.97;;
10174;SDS011;18221;38.704;0.152;2024-02-15T09:42:47;3.47;;;1.80;;
10174;SDS011;18221;38.704;0.152;2024-02-15T09:45:16;4.73;;;2.50;;
10174;SDS011;18221;38.704;0.152;2024-02-15T09:47:46;3.87;;;3.00;;
10174;SDS011;18221;38.704;0.152;2024-02-15T09:50:16;6.50;;;3.07;;
10174;SDS011;18221;38.704;0.152;2024-02-15T09:52:44;6.40;;;3.17;;
10174;SDS011;18221;38.704;0.152;2024-02-15T09:55:18;7.10;;;3.10;;
10174;SDS011;18221;38.704;0.152;2024-02-15T09:57:48;5.00;;;3.23;;
10174;SDS011;18221;38.704;0.152;2024-02-15T10:00:18;6.20;;;2.93;;
10174;SDS011;18221;38.704;0.152;2024-02-15T10:02:47;4.00;;;3.20;;
10174;SDS011;18221;38.704;0.152;2024-02-15T10:05:17;6.50;;;3.63;;
10174;SDS011;18221;38.704;0.152;2024-02-15T10:07:46;7.67;;;3.00;;
10174;SDS011;18221;38.704;0.152;2024-02-15T10:10:14;6.07;;;3.67;;
10174;SDS011;18221;38.704;0.152;2024-02-15T10:12:46;7.03;;;3.53;;
10174;SDS011;18221;38.704;0.152;2024-02-15T10:15:31;5.57;;;3.37;;
10174;SDS011;18221;38.704;0.152;2024-02-15T10:18:06;5.20;;;3.07;;
10174;SDS011;18221;38.704;0.152;2024-02-15T10:20:36;5.50;;;3.07;;
10174;SDS011;18221;38.704;0.152;2024-02-15T10:23:09;4.20;;;3.07;;
10174;SDS011;18221;38.704;0.152;2024-02-15T10:25:40;6.20;;;2.83;;
10174;SDS011;18221;38.704;0.152;2024-02-15T10:28:09;6.73;;;3.00;;
10174;SDS011;18221;38.704;0.152;2024-02-15T10:30:41;5.63;;;3.40;;
10174;SDS011;18221;38.704;0.152;2024-02-15T10:33:10;7.27;;;4.40;;
10174;SDS011;18221;38.704;0.152;2024-02-15T10:35:47;5.80;;;3.70;;
10174;SDS011;18221;38.704;0.152;2024-02-15T10:38:14;5.63;;;3.53;;
10174;SDS011;18221;38.704;0.152;2024-02-15T10:40:44;9.27;;;4.13;;
10174;SDS011;18221;38.704;0.152;2024-02-15T10:43:15;9.87;;;5.07;;
10174;SDS011;18221;38.704;0.152;2024-02-15T10:45:44;8.20;;;4.60;;
10174;SDS011;18221;38.704;0.152;2024-02-15T10:48:14;9.50;;;4.30;;
10174;SDS011;18221;38.704;0.152;2024-02-15T10:50:43;7.33;;;5.13;;
10174;SDS011;18221;38.704;0.152;2024-02-15T10:53:20;10.10;;;5.23;;
10174;SDS011;18221;38.704;0.152;2024-02-15T10:55:56;8.20;;;5.20;;
10174;SDS011;18221;38.704;0.152;2024-02-15T10:58:39;9.07;;;5.13;;
10174;SDS011;18221;38.704;0.152;2024-02-15T11:01:15;11.47;;;5.80;;
10174;SDS011;18221;38.704;0.152;2024-02-15T11:03:50;8.23;;;3.97;;
10174;SDS011;18221;38.704;0.152;2024-02-15T11:06:24;7.40;;;4.07;;
10174;SDS011;18221;38.704;0.152;2024-02-15T11:08:55;4.33;;;3.13;;
10174;SDS011;18221;38.704;0.152;2024-02-15T11:11:25;5.83;;;2.80;;
10174;SDS011;18221;38.704;0.152;2024-02-15T11:16:52;9.20;;;4.47;;
10174;SDS011;18221;38.704;0.152;2024-02-15T11:22:14;5.90;;;3.70;;
10174;SDS011;18221;38.704;0.152;2024-02-15T11:24:46;6.10;;;3.37;;
10174;SDS011;18221;38.704;0.152;2024-02-15T11:30:05;7.60;;;4.30;;
10174;SDS011;18221;38.704;0.152;2024-02-15T11:32:38;5.03;;;3.83;;
10174;SDS011;18221;38.704;0.152;2024-02-15T11:35:09;5.67;;;2.70;;
10174;SDS011;18221;38.704;0.152;2024-02-15T11:37:54;6.03;;;2.77;;
10174;SDS011;18221;38.704;0.152;2024-02-15T11:40:59;4.00;;;2.20;;
10174;SDS011;18221;38.704;0.152;2024-02-15T11:43:52;3.27;;;2.30;;
10174;SDS011;18221;38.704;0.152;2024-02-15T11:46:24;5.53;;;2.60;;
10174;SDS011;18221;38.704;0.152;2024-02-15T11:48:57;6.00;;;2.67;;
10174;SDS011;18221;38.704;0.152;2024-02-15T11:51:26;5.63;;;3.10;;
10174;SDS011;18221;38.704;0.152;2024-02-15T11:54:01;4.73;;;2.93;;
10174;SDS011;18221;38.704;0.152;2024-02-15T11:56:52;7.07;;;3.27;;
10174;SDS011;18221;38.704;0.152;2024-02-15T11:59:32;5.23;;;3.50;;
10174;SDS011;18221;38.704;0.152;2024-02-15T12:02:19;4.13;;;3.03;;
10174;SDS011;18221;38.704;0.152;2024-02-15T12:05:05;4.53;;;3.10;;
10174;SDS011;18221;38.704;0.152;2024-02-15T12:07:53;5.53;;;2.70;;
10174;SDS011;18221;38.704;0.152;2024-02-15T12:10:39;5.60;;;2.60;;
10174;SDS011;18221;38.704;0.152;2024-02-15T12:13:24;6.67;;;2.50;;
10174;SDS011;18221;38.704;0.152;2024-02-15T12:16:15;3.97;;;2.27;;
10174;SDS011;18221;38.704;0.152;2024-02-15T12:19:15;5.43;;;2.70;;
10174;SDS011;18221;38.704;0.152;2024-02-15T12:21:43;4.47;;;2.00;;
10174;SDS011;18221;38.704;0.152;2024-02-15T12:24:11;3.63;;;1.90;;
10174;SDS011;18221;38.704;0.152;2024-02-15T12:26:39;2.93;;;1.63;;
10174;SDS011;18221;38.704;0.152;2024-02-15T12:29:15;3.73;;;1.97;;
10174;SDS011;18221;38.704;0.152;2024-02-15T12:31:46;3.83;;;2.00;;
10174;SDS011;18221;38.704;0.152;2024-02-15T12:34:14;3.70;;;1.70;;
10174;SDS011;18221;38.704;0.152;2024-02-15T12:36:49;2.83;;;1.80;;
10174;SDS011;18221;38.704;0.152;2024-02-15T12:39:31;4.13;;;1.70;;
10174;SDS011;18221;38.704;0.152;2024-02-15T12:41:59;4.30;;;2.10;;
10174;SDS011;18221;38.704;0.152;2024-02-15T12:44:29;4.03;;;2.00;;
10174;SDS011;18221;38.704;0.152;2024-02-15T12:47:00;4.30;;;2.13;;
10174;SDS011;18221;38.704;0.152;2024-02-15T12:49:29;4.40;;;2.20;;
10174;SDS011;18221;38.704;0.152;2024-02-15T12:55:10;4.87;;;2.07;;
10174;SDS011;18221;38.704;0.152;2024-02-15T12:57:43;4.93;;;2.40;;
10174;SDS011;18221;38.704;0.152;2024-02-15T13:00:17;4.23;;;2.10;;
10174;SDS011;18221;38.704;0.152;2024-02-15T13:02:47;4.33;;;2.30;;
10174;SDS011;18221;38.704;0.152;2024-02-15T13:05:18;4.00;;;2.57;;
10174;SDS011;18221;38.704;0.152;2024-02-15T13:07:47;7.20;;;2.50;;
10174;SDS011;18221;38.704;0.152;2024-02-15T13:10:15;3.77;;;2.20;;
10174;SDS011;18221;38.704;0.152;2024-02-15T13:12:44;6.60;;;2.90;;
10174;SDS011;18221;38.704;0.152;2024-02-15T13:15:13;6.27;;;2.87;;
10174;SDS011;18221;38.704;0.152;2024-02-15T13:17:43;6.17;;;2.73;;
10174;SDS011;18221;38.704;0.152;2024-02-15T13:20:13;6.10;;;2.40;;
10174;SDS011;18221;38.704;0.152;2024-02-15T13:22:45;5.63;;;2.83;;
10174;SDS011;18221;38.704;0.152;2024-02-15T13:25:14;4.57;;;2.50;;
10174;SDS011;18221;38.704;0.152;2024-02-15T13:27:42;5.20;;;2.93;;
10174;SDS011;18221;38.704;0.152;2024-02-15T13:30:11;7.47;;;3.43;;
10174;SDS011;18221;38.704;0.152;2024-02-15T13:32:40;7.40;;;3.00;;
10174;SDS011;18221;38.704;0.152;2024-02-15T13:35:08;7.27;;;3.03;;
10174;SDS011;18221;38.704;0.152;2024-02-15T13:37:45;9.97;;;3.27;;
10174;SDS011;18221;38.704;0.152;2024-02-15T13:40:14;6.70;;;3.10;;
10174;SDS011;18221;38.704;0.152;2024-02-15T13:42:43;5.13;;;3.43;;
10174;SDS011;18221;38.704;0.152;2024-02-15T13:45:15;4.47;;;3.17;;
10174;SDS011;18221;38.704;0.152;2024-02-15T13:47:46;5.90;;;3.23;;
10174;SDS011;18221;38.704;0.152;2024-02-15T13:50:15;7.33;;;3.40;;
10174;SDS011;18221;38.704;0.152;2024-02-15T13:52:45;5.53;;;3.10;;
10174;SDS011;18221;38.704;0.152;2024-02-15T13:55:14;6.50;;;3.13;;
10174;SDS011;18221;38.704;0.152;2024-02-15T13:57:44;7.80;;;2.70;;
10174;SDS011;18221;38.704;0.152;2024-02-15T14:00:14;3.80;;;2.20;;
10174;SDS011;18221;38.704;0.152;2024-02-15T14:02:48;6.10;;;2.77;;
10174;SDS011;18221;38.704;0.152;2024-02-15T14:05:17;4.07;;;2.20;;
10174;SDS011;18221;38.704;0.152;2024-02-15T14:07:48;4.43;;;2.40;;
10174;SDS011;18221;38.704;0.152;2024-02-15T14:10:17;4.17;;;2.10;;
10174;SDS011;18221;38.704;0.152;2024-02-15T14:12:46;5.37;;;2.00;;
10174;SDS011;18221;38.704;0.152;2024-02-15T14:15:14;2.77;;;1.80;;
10174;SDS011;18221;38.704;0.152;2024-02-15T14:17:43;5.23;;;1.90;;
10174;SDS011;18221;38.704;0.152;2024-02-15T14:20:11;3.93;;;2.07;;
10174;SDS011;18221;38.704;0.152;2024-02-15T14:22:40;6.53;;;2.07;;
10174;SDS011;18221;38.704;0.152;2024-02-15T14:25:12;3.33;;;2.00;;
10174;SDS011;18221;38.704;0.152;2024-02-15T14:27:40;4.83;;;2.17;;
10174;SDS011;18221;38.704;0.152;2024-02-15T14:30:09;4.43;;;2.20;;
10174;SDS011;18221;38.704;0.152;2024-02-15T14:32:55;3.57;;;2.07;;
10174;SDS011;18221;38.704;0.152;2024-02-15T14:35:34;5.00;;;2.60;;
10174;SDS011;18221;38.704;0.152;2024-02-15T14:38:05;4.13;;;2.30;;
10174;SDS011;18221;38.704;0.152;2024-02-15T14:40:37;5.47;;;2.30;;
10174;SDS011;18221;38.704;0.152;2024-02-15T14:43:08;4.30;;;2.40;;
10174;SDS011;18221;38.704;0.152;2024-02-15T14:45:38;4.33;;;2.30;;
10174;SDS011;18221;38.704;0.152;2024-02-15T14:48:07;5.63;;;2.40;;
10174;SDS011;18221;38.704;0.152;2024-02-15T14:50:38;4.47;;;2.33;;
10174;SDS011;18221;38.704;0.152;2024-02-15T14:53:06;7.17;;;2.60;;
10174;SDS011;18221;38.704;0.152;2024-02-15T14:55:37;4.07;;;2.37;;
10174;SDS011;18221;38.704;0.152;2024-02-15T14:58:06;4.60;;;2.30;;
10174;SDS011;18221;38.704;0.152;2024-02-15T15:00:34;6.97;;;2.43;;
10174;SDS011;18221;38.704;0.152;2024-02-15T15:03:03;3.43;;;2.40;;
10174;SDS011;18221;38.704;0.152;2024-02-15T15:05:31;5.67;;;2.90;;
10174;SDS011;18221;38.704;0.152;2024-02-15T15:08:16;7.67;;;3.23;;
10174;SDS011;18221;38.704;0.152;2024-02-15T15:11:03;8.03;;;3.70;;
10174;SDS011;18221;38.704;0.152;2024-02-15T15:13:48;11.20;;;4.20;;
10174;SDS011;18221;38.704;0.152;2024-02-15T15:16:17;7.90;;;4.17;;
10174;SDS011;18221;38.704;0.152;2024-02-15T15:18:46;6.10;;;4.50;;
10174;SDS011;18221;38.704;0.152;2024-02-15T15:21:15;6.60;;;3.83;;
10174;SDS011;18221;38.704;0.152;2024-02-15T15:23:44;8.10;;;3.70;;
10174;SDS011;18221;38.704;0.152;2024-02-15T15:26:18;5.50;;;3.17;;
10174;SDS011;18221;38.704;0.152;2024-02-15T15:28:47;5.77;;;3.43;;
10174;SDS011;18221;38.704;0.152;2024-02-15T15:31:15;6.90;;;3.03;;
10174;SDS011;18221;38.704;0.152;2024-02-15T15:33:45;7.50;;;3.03;;